Time;durP1;ratioP1;P1;durP2;ratioP2;P2;SDS_P1;SDS_P2;PMS_P1;PMS_P2;Temp;Humidity;BMP_temperature;BMP_pressure;BME280_temperature;BME280_humidity;BME280_pressure;Samples;Min_cycle;Max_cycle;Signal;HPM_P1;HPM_P2
2022/08/31 00:04:47;;;;;;;1.27;0.50;;;;;;;17.39;100.00;99249.38;5174556;27;19976;-55
2022/08/31 00:07:13;;;;;;;0.60;0.60;;;;;;;17.37;100.00;99249.03;5174427;27;20054;-53
2022/08/31 00:09:40;;;;;;;0.75;0.70;;;;;;;17.38;100.00;99242.28;5174367;27;20465;-54
2022/08/31 00:12:06;;;;;;;0.50;0.50;;;;;;;17.40;100.00;99237.91;5174534;27;20133;-53
2022/08/31 00:14:33;;;;;;;0.70;0.70;;;;;;;17.27;100.00;99283.16;5174416;27;20046;-53
2022/08/31 00:16:59;;;;;;;0.73;0.65;;;;;;;17.46;100.00;99271.53;5174247;27;20526;-52
2022/08/31 00:19:26;;;;;;;0.50;0.50;;;;;;;17.15;100.00;99281.63;5174610;27;20066;-52
2022/08/31 00:21:52;;;;;;;0.50;0.50;;;;;;;17.22;100.00;99289.91;5174204;27;20080;-52
2022/08/31 00:24:19;;;;;;;0.60;0.55;;;;;;;17.23;100.00;99272.09;5174240;27;20057;-54
2022/08/31 00:26:45;;;;;;;0.57;0.57;;;;;;;17.23;100.00;99302.56;5174109;27;20152;-54
2022/08/31 00:29:12;;;;;;;0.60;0.55;;;;;;;17.06;100.00;99286.84;5174279;27;20082;-52
2022/08/31 00:31:39;;;;;;;5.05;0.60;;;;;;;17.33;100.00;99279.53;5173980;27;20085;-54
2022/08/31 00:34:05;;;;;;;0.55;0.55;;;;;;;17.36;100.00;99283.47;5173928;27;20095;-55
2022/08/31 00:36:33;;;;;;;0.50;0.50;;;;;;;17.28;100.00;99285.50;5173954;27;20144;-55
2022/08/31 00:38:59;;;;;;;0.52;0.52;;;;;;;17.33;100.00;99271.22;5173889;27;20081;-55
2022/08/31 00:41:30;;;;;;;0.73;0.52;;;;;;;16.97;100.00;99272.66;5174211;27;20417;-54
2022/08/31 00:43:59;;;;;;;0.50;0.50;;;;;;;17.23;100.00;99288.72;5173974;27;20145;-55
2022/08/31 00:46:28;;;;;;;0.65;0.63;;;;;;;16.93;100.00;99273.47;5174110;27;20086;-55
2022/08/31 00:49:00;;;;;;;0.50;0.50;;;;;;;17.07;100.00;99316.13;5173815;27;20478;-52
2022/08/31 00:51:28;;;;;;;0.40;0.40;;;;;;;16.89;100.00;99313.44;5173969;27;20054;-55
2022/08/31 00:53:56;;;;;;;0.40;0.40;;;;;;;17.25;100.00;99304.94;5173700;27;20115;-52
2022/08/31 00:56:23;;;;;;;0.50;0.50;;;;;;;17.46;100.00;99267.94;5173611;27;20597;-52
2022/08/31 00:58:51;;;;;;;1.55;0.52;;;;;;;17.24;100.00;99270.91;5173503;27;20042;-55
2022/08/31 01:01:18;;;;;;;0.75;0.60;;;;;;;16.84;100.00;99358.19;5173677;27;20145;-54
2022/08/31 01:03:45;;;;;;;0.73;0.55;;;;;;;17.10;100.00;99381.81;5173825;27;20046;-52
2022/08/31 01:06:11;;;;;;;1.75;0.50;;;;;;;16.82;100.00;99383.50;5173471;27;20144;-51
2022/08/31 01:08:38;;;;;;;0.50;0.50;;;;;;;16.90;100.00;99393.34;5173724;27;20054;-54
2022/08/31 01:11:06;;;;;;;0.45;0.45;;;;;;;16.79;100.00;99391.81;5173420;27;20170;-55
2022/08/31 01:13:32;;;;;;;1.55;0.55;;;;;;;16.78;100.00;99402.09;5172246;27;20140;-53
2022/08/31 01:16:05;;;;;;;4.43;0.60;;;;;;;16.69;100.00;99404.47;5173181;27;20137;-52
2022/08/31 01:18:32;;;;;;;0.60;0.60;;;;;;;16.81;100.00;99393.00;5173486;27;20128;-53
2022/08/31 01:21:07;;;;;;;0.57;0.57;;;;;;;16.70;100.00;99392.22;5173243;27;20082;-53
2022/08/31 01:23:38;;;;;;;0.50;0.50;;;;;;;16.87;100.00;99394.16;5173393;27;20129;-56
2022/08/31 01:26:07;;;;;;;1.33;0.70;;;;;;;16.73;100.00;99396.16;5173195;27;20128;-53
2022/08/31 01:28:33;;;;;;;0.60;0.60;;;;;;;16.71;100.00;99391.81;5172971;27;20054;-56
2022/08/31 01:31:03;;;;;;;1.35;0.65;;;;;;;16.63;100.00;99398.56;5173401;27;20462;-53
2022/08/31 01:33:30;;;;;;;0.50;0.50;;;;;;;16.74;100.00;99401.28;5173146;27;20088;-56
2022/08/31 01:35:57;;;;;;;0.57;0.57;;;;;;;16.43;100.00;99403.75;5173260;27;20054;-53
2022/08/31 01:38:24;;;;;;;1.58;0.60;;;;;;;16.31;100.00;99398.63;5172847;27;20523;-53
2022/08/31 01:40:53;;;;;;;2.28;0.52;;;;;;;16.35;100.00;99387.56;5173173;27;20134;-56
2022/08/31 01:43:20;;;;;;;1.65;0.70;;;;;;;16.35;100.00;99399.41;5172861;27;20125;-56
2022/08/31 01:45:47;;;;;;;0.60;0.60;;;;;;;16.24;100.00;99395.88;5173302;27;20139;-57
2022/08/31 01:48:13;;;;;;;0.82;0.80;;;;;;;16.43;100.00;99402.97;5172927;27;20046;-53
2022/08/31 01:50:40;;;;;;;0.50;0.50;;;;;;;16.54;100.00;99402.94;5173007;27;20050;-55
2022/08/31 01:53:07;;;;;;;0.85;0.70;;;;;;;16.55;100.00;99404.50;5172912;27;20624;-55
2022/08/31 01:55:33;;;;;;;0.90;0.60;;;;;;;16.64;100.00;99405.69;5172792;27;20090;-53
2022/08/31 01:58:00;;;;;;;1.20;0.70;;;;;;;16.50;100.00;99402.16;5172878;27;20046;-56
2022/08/31 02:00:27;;;;;;;0.77;0.60;;;;;;;16.37;100.00;99394.28;5172702;27;20053;-54
2022/08/31 02:02:54;;;;;;;1.13;0.70;;;;;;;16.30;100.00;99393.50;5173152;27;20053;-54
2022/08/31 02:05:21;;;;;;;0.70;0.60;;;;;;;16.45;100.00;99395.03;5172569;27;20145;-52
2022/08/31 02:07:47;;;;;;;0.65;0.60;;;;;;;16.65;100.00;99393.41;5172981;27;20046;-53
2022/08/31 02:10:14;;;;;;;1.42;0.70;;;;;;;16.50;100.00;99396.63;5172596;27;20577;-55
2022/08/31 02:12:40;;;;;;;0.73;0.68;;;;;;;16.75;100.00;99396.56;5172917;27;20398;-54
2022/08/31 02:15:09;;;;;;;1.75;0.88;;;;;;;16.76;100.00;99393.41;5172358;27;20077;-55
2022/08/31 02:17:35;;;;;;;1.08;0.73;;;;;;;16.54;100.00;99397.41;5172428;27;20095;-55
2022/08/31 02:20:01;;;;;;;1.25;0.68;;;;;;;16.44;100.00;99402.56;5172254;27;20072;-55
2022/08/31 02:22:28;;;;;;;0.60;0.60;;;;;;;16.38;100.00;99397.84;5172322;27;20413;-56
2022/08/31 02:24:54;;;;;;;3.92;0.73;;;;;;;16.36;100.00;99373.34;5172021;27;20050;-55
2022/08/31 02:27:20;;;;;;;1.52;0.70;;;;;;;16.19;100.00;99376.91;5172207;27;20532;-55
2022/08/31 02:29:46;;;;;;;0.88;0.70;;;;;;;15.64;100.00;99341.38;5172603;27;20084;-55
2022/08/31 02:32:13;;;;;;;0.75;0.75;;;;;;;15.37;100.00;99325.19;5172181;27;20085;-53
2022/08/31 02:34:40;;;;;;;0.40;0.40;;;;;;;15.29;100.00;99342.91;5172435;27;20481;-55
2022/08/31 02:37:06;;;;;;;0.43;0.43;;;;;;;15.26;100.00;99365.78;5172245;27;20394;-55
2022/08/31 02:39:32;;;;;;;0.55;0.55;;;;;;;15.49;100.00;99388.34;5172671;27;20047;-56
2022/08/31 02:41:59;;;;;;;0.75;0.47;;;;;;;15.14;100.00;99419.44;5172456;27;20074;-55
2022/08/31 02:44:25;;;;;;;3.70;0.40;;;;;;;15.10;100.00;99435.19;5172441;27;20418;-55
2022/08/31 02:46:51;;;;;;;0.40;0.40;;;;;;;14.97;100.00;99437.50;5172117;27;20077;-54
2022/08/31 02:49:20;;;;;;;0.40;0.40;;;;;;;15.15;100.00;99440.31;5172061;27;20136;-54
2022/08/31 02:51:46;;;;;;;0.75;0.40;;;;;;;15.23;100.00;99446.69;5172310;27;20050;-55
2022/08/31 02:54:13;;;;;;;3.13;0.82;;;;;;;15.23;100.00;99449.44;5171882;27;20093;-52
2022/08/31 02:56:39;;;;;;;0.52;0.50;;;;;;;14.85;100.00;99451.63;5172084;27;20094;-54
2022/08/31 02:59:07;;;;;;;0.70;0.40;;;;;;;15.00;100.00;99458.81;5171900;27;20141;-51
2022/08/31 03:01:34;;;;;;;1.20;0.45;;;;;;;15.04;100.00;99445.81;5172223;27;20054;-52
2022/08/31 03:04:01;;;;;;;1.27;0.40;;;;;;;14.85;100.00;99440.59;5171623;27;20058;-53
2022/08/31 03:06:30;;;;;;;0.43;0.43;;;;;;;14.94;100.00;99441.03;5172174;27;20046;-52
2022/08/31 03:08:59;;;;;;;0.40;0.40;;;;;;;14.64;100.00;99446.00;5172024;27;20078;-52
2022/08/31 03:11:26;;;;;;;0.40;0.40;;;;;;;14.75;100.00;99453.16;5171751;27;20043;-54
2022/08/31 03:13:52;;;;;;;1.98;0.40;;;;;;;15.07;100.00;99438.72;5171717;27;20085;-55
2022/08/31 03:16:19;;;;;;;0.80;0.60;;;;;;;14.74;100.00;99442.53;5171571;27;20046;-56
2022/08/31 03:18:47;;;;;;;1.20;0.50;;;;;;;14.59;100.00;99452.66;5171758;27;20512;-53
2022/08/31 03:21:14;;;;;;;2.42;0.50;;;;;;;14.68;100.00;99447.59;5171499;27;20517;-52
2022/08/31 03:23:41;;;;;;;2.95;0.40;;;;;;;14.89;100.00;99460.72;5171861;27;20052;-52
2022/08/31 03:26:07;;;;;;;0.43;0.43;;;;;;;14.83;100.00;99435.47;5171430;27;20054;-54
2022/08/31 03:28:35;;;;;;;0.45;0.45;;;;;;;14.61;100.00;99432.97;5171914;27;20493;-54
2022/08/31 03:31:02;;;;;;;0.40;0.40;;;;;;;14.59;100.00;99394.72;5171408;27;20046;-51
2022/08/31 03:33:28;;;;;;;0.47;0.47;;;;;;;14.70;100.00;99373.50;5171664;27;20046;-54
2022/08/31 03:35:54;;;;;;;0.40;0.40;;;;;;;14.72;100.00;99343.53;5172337;27;20508;-52
2022/08/31 03:38:21;;;;;;;0.40;0.40;;;;;;;14.59;100.00;99367.94;5175442;27;20042;-53
2022/08/31 03:40:49;;;;;;;0.40;0.40;;;;;;;14.53;100.00;99308.03;5175214;27;20046;-55
2022/08/31 03:43:16;;;;;;;0.40;0.40;;;;;;;14.72;100.00;99235.13;5174864;27;20441;-54
2022/08/31 03:45:43;;;;;;;0.90;0.90;;;;;;;14.53;100.00;99168.09;5175046;27;20179;-54
2022/08/31 03:48:10;;;;;;;1.23;0.43;;;;;;;14.59;100.00;99124.34;5174912;27;20050;-55
2022/08/31 03:50:36;;;;;;;0.38;0.38;;;;;;;14.95;100.00;99050.63;5175355;27;20046;-53
2022/08/31 03:53:04;;;;;;;2.30;0.85;;;;;;;14.89;100.00;99004.50;5174986;27;20441;-53
2022/08/31 03:55:31;;;;;;;0.40;0.40;;;;;;;14.65;100.00;99017.16;5175066;27;20061;-55
2022/08/31 03:57:58;;;;;;;0.57;0.50;;;;;;;14.70;100.00;99107.81;5174706;27;20142;-53
2022/08/31 04:00:25;;;;;;;0.50;0.50;;;;;;;14.96;100.00;99045.88;5174944;27;20133;-53
2022/08/31 04:02:52;;;;;;;0.40;0.40;;;;;;;14.75;100.00;99016.34;5174744;27;20046;-56
2022/08/31 04:05:20;;;;;;;0.65;0.40;;;;;;;14.96;100.00;99054.97;5174966;27;20046;-55
2022/08/31 04:07:46;;;;;;;3.55;0.90;;;;;;;15.07;100.00;99002.50;5174424;27;20057;-53
2022/08/31 04:10:14;;;;;;;0.47;0.40;;;;;;;15.15;100.00;98967.34;5174448;27;20042;-53
2022/08/31 04:12:40;;;;;;;0.60;0.60;;;;;;;14.94;100.00;99006.88;5174295;27;20146;-53
2022/08/31 04:15:09;;;;;;;1.40;0.50;;;;;;;14.89;100.00;99045.91;5174326;27;20054;-53
2022/08/31 04:17:35;;;;;;;0.40;0.40;;;;;;;14.80;100.00;99068.41;5174318;27;20084;-52
2022/08/31 04:20:02;;;;;;;0.50;0.50;;;;;;;15.06;100.00;99103.06;5174231;27;20049;-52
2022/08/31 04:22:28;;;;;;;0.40;0.40;;;;;;;14.88;100.00;99009.25;5174590;27;20516;-54
2022/08/31 04:24:54;;;;;;;2.83;0.40;;;;;;;14.79;100.00;98917.78;5174255;27;20137;-55
2022/08/31 04:27:21;;;;;;;0.65;0.40;;;;;;;14.81;100.00;98973.38;5174761;27;20130;-53
2022/08/31 04:29:47;;;;;;;0.50;0.50;;;;;;;14.83;100.00;98913.06;5174403;27;20060;-55
2022/08/31 04:32:14;;;;;;;0.30;0.30;;;;;;;15.28;100.00;98736.50;5174417;27;20046;-55
2022/08/31 04:34:40;;;;;;;0.52;0.52;;;;;;;15.20;100.00;98544.50;5174005;27;20069;-53
2022/08/31 04:37:07;;;;;;;1.67;0.55;;;;;;;14.85;100.00;98526.31;5173924;27;20141;-54
2022/08/31 04:39:34;;;;;;;1.10;0.50;;;;;;;14.97;100.00;98559.69;5173974;27;20133;-56
2022/08/31 04:42:00;;;;;;;0.45;0.40;;;;;;;15.15;100.00;98460.13;5173868;27;20493;-55
2022/08/31 04:44:27;;;;;;;0.30;0.30;;;;;;;14.87;100.00;98319.72;5173834;27;20050;-56
2022/08/31 04:46:54;;;;;;;0.50;0.50;;;;;;;15.23;100.00;98229.69;5173544;27;20505;-54
2022/08/31 04:49:20;;;;;;;0.40;0.40;;;;;;;15.09;100.00;98209.78;5174064;27;20049;-56
2022/08/31 04:51:47;;;;;;;0.40;0.40;;;;;;;15.16;100.00;98187.59;5173773;27;20414;-55
2022/08/31 04:54:13;;;;;;;0.40;0.40;;;;;;;15.10;100.00;98241.72;5174070;27;20485;-57
2022/08/31 04:56:42;;;;;;;0.35;0.35;;;;;;;15.27;100.00;98290.38;5173579;27;20092;-54
2022/08/31 04:59:11;;;;;;;0.40;0.40;;;;;;;15.15;100.00;98302.75;5173925;27;20497;-56
2022/08/31 05:01:40;;;;;;;0.65;0.40;;;;;;;15.29;100.00;98359.75;5173647;27;20499;-58
2022/08/31 05:04:07;;;;;;;0.40;0.40;;;;;;;15.29;100.00;98345.94;5173771;27;20069;-57
2022/08/31 05:06:38;;;;;;;2.65;0.50;;;;;;;15.56;100.00;98290.72;5173757;27;20129;-56
2022/08/31 05:09:06;;;;;;;0.45;0.45;;;;;;;15.57;100.00;98297.03;5173470;27;20137;-55
2022/08/31 05:11:33;;;;;;;0.40;0.40;;;;;;;15.84;100.00;98250.00;5173378;27;20129;-51
2022/08/31 05:14:01;;;;;;;0.70;0.45;;;;;;;15.14;100.00;98236.94;5173300;27;20186;-57
2022/08/31 05:16:29;;;;;;;0.50;0.50;;;;;;;15.03;100.00;98337.25;5173565;27;20145;-56
2022/08/31 05:18:56;;;;;;;4.38;0.73;;;;;;;15.45;100.00;98295.63;5173212;27;20046;-55
2022/08/31 05:21:27;;;;;;;1.60;0.75;;;;;;;15.69;100.00;98238.41;5173530;27;20058;-56
2022/08/31 05:23:55;;;;;;;0.57;0.43;;;;;;;15.76;100.00;98205.13;5173159;27;20042;-55
2022/08/31 05:26:24;;;;;;;0.55;0.55;;;;;;;15.90;100.00;98180.00;5173337;27;20428;-57
2022/08/31 05:28:51;;;;;;;0.60;0.60;;;;;;;15.75;100.00;98164.88;5173512;27;20132;-56
2022/08/31 05:31:17;;;;;;;1.50;0.80;;;;;;;16.04;100.00;98167.88;5172831;27;20159;-52
2022/08/31 05:33:44;;;;;;;0.40;0.40;;;;;;;15.97;100.00;98137.63;5173152;27;20129;-53
2022/08/31 05:36:11;;;;;;;7.30;0.70;;;;;;;15.97;100.00;98171.56;5172767;27;20062;-53
2022/08/31 05:38:38;;;;;;;1.83;0.60;;;;;;;16.36;100.00;98127.69;5173013;27;20441;-58
2022/08/31 05:41:06;;;;;;;2.97;0.52;;;;;;;15.99;100.00;98147.06;5172739;27;20047;-54
2022/08/31 05:43:33;;;;;;;0.60;0.60;;;;;;;15.79;100.00;98165.59;5173008;27;20042;-61
2022/08/31 05:46:00;;;;;;;1.27;0.50;;;;;;;15.65;100.00;98166.59;5172757;27;20057;-53
2022/08/31 05:48:32;;;;;;;0.80;0.60;;;;;;;15.95;100.00;98182.25;5172991;27;20186;-60
2022/08/31 05:51:00;;;;;;;6.25;0.60;;;;;;;16.13;100.00;98167.31;5172866;27;20046;-55
2022/08/31 05:53:26;;;;;;;0.40;0.40;;;;;;;16.09;100.00;98158.28;5173118;27;20653;-54
2022/08/31 05:55:58;;;;;;;5.93;0.50;;;;;;;15.82;100.00;98169.50;5172769;27;20160;-54
2022/08/31 05:58:25;;;;;;;0.57;0.43;;;;;;;15.66;100.00;98190.31;5171690;27;20535;-56
2022/08/31 06:00:51;;;;;;;1.95;0.75;;;;;;;15.67;100.00;98216.75;5172911;27;20052;-59
2022/08/31 06:03:17;;;;;;;0.50;0.50;;;;;;;15.81;100.00;98224.00;5172514;27;20065;-60
2022/08/31 06:05:44;;;;;;;4.38;0.43;;;;;;;15.81;100.00;98210.16;5172598;27;20058;-59
2022/08/31 06:08:10;;;;;;;1.38;0.70;;;;;;;15.81;100.00;98198.34;5172277;27;20050;-57
2022/08/31 06:10:37;;;;;;;0.57;0.57;;;;;;;15.60;100.00;98180.94;5172529;27;20054;-57
2022/08/31 06:13:05;;;;;;;2.58;0.70;;;;;;;15.79;100.00;98184.94;5172294;27;20555;-57
2022/08/31 06:15:32;;;;;;;2.92;0.60;;;;;;;15.59;100.00;98164.75;5172363;27;20087;-54
2022/08/31 06:17:58;;;;;;;1.23;0.50;;;;;;;15.62;100.00;98189.56;5172173;27;20098;-57
2022/08/31 06:20:24;;;;;;;0.57;0.57;;;;;;;15.86;100.00;98170.19;5172448;27;20470;-57
2022/08/31 06:22:51;;;;;;;2.55;1.50;;;;;;;16.13;100.00;98167.31;5172495;27;20156;-55
2022/08/31 06:25:18;;;;;;;9.00;1.67;;;;;;;16.76;100.00;98192.06;5172190;27;20050;-56
2022/08/31 06:27:46;;;;;;;8.35;2.95;;;;;;;17.39;100.00;98182.63;5172308;27;20046;-54
2022/08/31 06:30:18;;;;;;;5.25;0.60;;;;;;;16.89;100.00;98178.31;5171989;27;20149;-53
2022/08/31 06:32:45;;;;;;;0.60;0.50;;;;;;;16.28;100.00;98225.88;5172007;27;20042;-56
2022/08/31 06:35:11;;;;;;;0.80;0.80;;;;;;;16.31;100.00;98247.13;5171967;27;20098;-56
2022/08/31 06:37:38;;;;;;;3.75;0.90;;;;;;;16.48;100.00;98235.69;5171998;27;20121;-53
2022/08/31 06:40:04;;;;;;;1.70;0.70;;;;;;;16.78;100.00;98258.06;5171819;27;20256;-57
2022/08/31 06:42:31;;;;;;;4.93;0.88;;;;;;;16.57;100.00;98256.50;5171992;27;20142;-57
2022/08/31 06:44:57;;;;;;;0.50;0.50;;;;;;;16.70;100.00;98282.31;5171716;27;20085;-56
2022/08/31 06:47:24;;;;;;;0.77;0.65;;;;;;;17.14;100.00;98305.13;5172149;27;20046;-56
2022/08/31 06:49:52;;;;;;;1.90;0.85;;;;;;;16.84;100.00;98334.63;5171648;27;20054;-56
2022/08/31 06:52:19;;;;;;;1.50;0.80;;;;;;;16.74;100.00;98318.22;5171735;27;20098;-56
2022/08/31 06:54:45;;;;;;;2.95;0.63;;;;;;;16.90;100.00;98307.22;5171821;27;20049;-55
2022/08/31 06:57:11;;;;;;;1.42;1.15;;;;;;;17.00;100.00;98319.28;5171384;27;20082;-54
2022/08/31 06:59:38;;;;;;;1.65;0.75;;;;;;;16.99;100.00;98304.63;5171663;27;20464;-56
2022/08/31 07:02:04;;;;;;;2.63;0.80;;;;;;;16.99;100.00;98323.25;5171603;27;20100;-55
2022/08/31 07:04:32;;;;;;;0.40;0.40;;;;;;;17.85;100.00;98411.56;5171749;27;20042;-53
2022/08/31 07:06:59;;;;;;;4.40;1.00;;;;;;;17.38;100.00;98445.06;5171645;27;20054;-56
2022/08/31 07:09:25;;;;;;;1.00;0.77;;;;;;;17.14;100.00;98426.97;5171859;27;20089;-54
2022/08/31 07:11:52;;;;;;;2.33;0.70;;;;;;;17.12;100.00;98393.38;5174005;27;20088;-56
2022/08/31 07:14:21;;;;;;;1.40;0.70;;;;;;;16.95;100.00;98364.84;5175543;27;20053;-56
2022/08/31 07:16:48;;;;;;;0.77;0.73;;;;;;;17.48;100.00;98382.31;5174958;27;20054;-56
2022/08/31 07:19:15;;;;;;;1.95;0.75;;;;;;;17.72;100.00;98391.25;5175079;27;20136;-56
2022/08/31 07:21:43;;;;;;;0.70;0.70;;;;;;;19.95;100.00;98500.78;5175122;27;20054;-57
2022/08/31 07:24:12;;;;;;;8.32;0.88;;;;;;;20.42;100.00;98598.31;5175078;27;20082;-56
2022/08/31 07:26:42;;;;;;;3.95;0.60;;;;;;;21.12;100.00;98640.28;5175309;27;20416;-56
2022/08/31 07:29:09;;;;;;;1.48;0.63;;;;;;;20.86;100.00;98640.34;5175076;27;20491;-55
2022/08/31 07:31:43;;;;;;;0.73;0.63;;;;;;;20.95;100.00;98653.59;5174894;27;20046;-53
2022/08/31 07:34:11;;;;;;;0.70;0.70;;;;;;;20.36;100.00;98618.81;5174781;27;20394;-57
2022/08/31 07:42:11;;;;;;;4.32;0.60;;;;;;;21.64;100.00;98725.41;5174984;27;20425;-57
2022/08/31 07:44:40;;;;;;;2.50;0.57;;;;;;;20.94;100.00;98702.19;5174985;27;20054;-56
2022/08/31 07:47:09;;;;;;;0.73;0.60;;;;;;;20.19;100.00;98682.94;5174717;27;20054;-53
2022/08/31 07:49:36;;;;;;;4.03;0.73;;;;;;;20.14;100.00;98693.81;5174892;27;20115;-54
2022/08/31 07:52:04;;;;;;;0.85;0.85;;;;;;;19.39;100.00;98659.66;5174923;27;20050;-53
2022/08/31 07:54:33;;;;;;;0.93;0.80;;;;;;;20.74;100.00;98685.69;5174662;27;20054;-57
2022/08/31 07:57:02;;;;;;;1.25;0.60;;;;;;;20.55;100.00;98693.03;5174862;27;20054;-54
2022/08/31 07:59:31;;;;;;;2.28;0.90;;;;;;;19.96;100.00;98700.66;5174571;27;20046;-56
2022/08/31 08:02:00;;;;;;;1.10;0.77;;;;;;;20.11;100.00;98662.09;5174468;27;20050;-57
2022/08/31 08:04:27;;;;;;;5.35;0.88;;;;;;;19.59;100.00;98617.81;5174379;27;20508;-55
2022/08/31 08:06:55;;;;;;;3.53;0.90;;;;;;;19.34;100.00;98571.25;5174623;27;20096;-57
2022/08/31 08:09:21;;;;;;;1.67;0.73;;;;;;;19.07;100.00;98547.34;5174374;27;20046;-53
2022/08/31 08:11:56;;;;;;;3.15;0.70;;;;;;;18.71;100.00;98533.56;5174551;27;20042;-57
2022/08/31 08:14:23;;;;;;;1.15;0.60;;;;;;;18.88;100.00;98510.16;5174324;27;20493;-56
2022/08/31 08:16:50;;;;;;;5.38;0.70;;;;;;;18.62;100.00;98495.31;5174300;27;20141;-55
2022/08/31 08:19:16;;;;;;;2.17;0.70;;;;;;;19.21;100.00;98499.72;5174059;27;20093;-57
2022/08/31 08:21:44;;;;;;;5.70;0.80;;;;;;;20.53;100.00;98586.13;5173596;27;20057;-54
2022/08/31 08:24:11;;;;;;;4.03;0.60;;;;;;;21.08;100.00;98662.72;5174165;27;20054;-57
2022/08/31 08:26:41;;;;;;;2.35;0.60;;;;;;;20.13;100.00;98681.13;5173889;27;20141;-53
2022/08/31 08:29:08;;;;;;;0.68;0.63;;;;;;;20.01;100.00;98660.38;5174300;27;20137;-55
2022/08/31 08:31:34;;;;;;;0.60;0.60;;;;;;;20.27;100.00;98680.72;5173628;27;20516;-53
2022/08/31 08:34:00;;;;;;;0.70;0.70;;;;;;;20.26;100.00;98706.19;5174289;27;20042;-57
2022/08/31 08:36:30;;;;;;;4.40;0.75;;;;;;;20.82;100.00;98698.16;5173633;27;20089;-56
2022/08/31 08:38:56;;;;;;;2.65;0.75;;;;;;;21.66;100.00;98745.28;5174057;27;20050;-58
2022/08/31 08:41:25;;;;;;;0.80;0.70;;;;;;;22.11;100.00;98769.25;5173741;27;20050;-55
2022/08/31 08:43:54;;;;;;;1.73;0.90;;;;;;;20.67;100.00;98753.53;5173905;27;20128;-55
2022/08/31 08:46:32;;;;;;;1.05;0.82;;;;;;;20.40;100.00;98730.84;5173866;27;20166;-56
2022/08/31 08:49:14;;;;;;;1.77;0.90;;;;;;;21.44;100.00;98756.38;5173620;27;20493;-56
2022/08/31 08:51:41;;;;;;;0.60;0.60;;;;;;;21.64;100.00;98772.06;5173758;27;20485;-55
2022/08/31 08:54:12;;;;;;;0.98;0.90;;;;;;;21.53;100.00;98775.22;5173493;27;20133;-56
2022/08/31 08:56:47;;;;;;;2.17;0.90;;;;;;;21.22;100.00;98774.97;5173580;27;20058;-55
2022/08/31 08:59:15;;;;;;;9.65;0.70;;;;;;;20.85;100.00;98744.63;5173210;27;20042;-55
2022/08/31 09:01:45;;;;;;;0.63;0.60;;;;;;;20.01;100.00;98698.56;5173363;27;20046;-55
2022/08/31 09:04:29;;;;;;;2.65;0.80;;;;;;;19.90;100.00;98688.50;5173689;27;20051;-54
2022/08/31 09:07:10;;;;;;;1.45;0.75;;;;;;;20.18;100.00;98686.91;5173631;27;20052;-57
2022/08/31 09:09:42;;;;;;;0.85;0.80;;;;;;;20.73;100.00;98698.06;5173306;27;20085;-57
2022/08/31 09:12:29;;;;;;;0.70;0.70;;;;;;;21.30;100.00;98737.28;5173244;27;20146;-56
2022/08/31 09:15:14;;;;;;;2.60;0.90;;;;;;;22.40;100.00;98787.81;5171888;27;20073;-59
2022/08/31 09:17:54;;;;;;;0.70;0.70;;;;;;;23.72;100.00;98810.69;5172803;27;20098;-61
2022/08/31 09:20:21;;;;;;;3.40;1.02;;;;;;;23.59;100.00;98832.38;5173007;27;20497;-59
2022/08/31 09:22:50;;;;;;;4.78;1.00;;;;;;;23.09;100.00;98846.34;5172445;27;20129;-59
2022/08/31 09:25:19;;;;;;;1.23;0.65;;;;;;;22.96;100.00;98854.03;5172562;27;20424;-60
2022/08/31 09:27:56;;;;;;;5.85;0.95;;;;;;;22.21;100.00;98825.97;5173047;27;20050;-56
2022/08/31 09:30:50;;;;;;;1.00;0.70;;;;;;;21.41;100.00;98790.72;5173441;27;20129;-55
2022/08/31 09:33:21;;;;;;;2.13;1.23;;;;;;;21.23;100.00;98782.13;5172235;27;20175;-57
2022/08/31 09:35:54;;;;;;;0.70;0.70;;;;;;;20.80;100.00;98750.00;5172963;27;20046;-57
2022/08/31 09:38:28;;;;;;;5.68;1.15;;;;;;;20.56;100.00;98718.88;5173377;27;20042;-57
2022/08/31 09:40:55;;;;;;;3.00;1.38;;;;;;;21.36;100.00;98802.44;5173139;27;20057;-59
2022/08/31 09:43:33;;;;;;;2.60;0.95;;;;;;;21.67;100.00;98813.00;5172664;27;20145;-55
2022/08/31 09:46:04;;;;;;;1.35;1.23;;;;;;;22.26;100.00;98820.59;5172928;27;20528;-54
2022/08/31 09:48:44;;;;;;;5.25;1.42;;;;;;;22.09;100.00;98819.16;5172976;27;20133;-60
2022/08/31 09:51:20;;;;;;;14.95;2.60;;;;;;;22.26;100.00;98817.03;5172893;27;20049;-60
2022/08/31 09:56:31;;;;;;;3.08;1.00;;;;;;;23.88;100.00;98879.63;5172508;27;20410;-56
2022/08/31 09:59:01;;;;;;;1.30;1.00;;;;;;;23.82;100.00;98901.84;5172568;27;20046;-56
2022/08/31 10:01:33;;;;;;;2.47;1.00;;;;;;;23.70;100.00;98894.34;5172582;27;20050;-55
2022/08/31 10:04:18;;;;;;;2.85;0.80;;;;;;;22.58;100.00;98879.34;5172560;27;20058;-55
2022/08/31 10:06:50;;;;;;;5.45;1.05;;;;;;;22.18;100.00;98857.56;5170549;27;20572;-56
2022/08/31 10:09:23;;;;;;;3.33;0.80;;;;;;;21.51;100.00;98845.38;5172677;27;20093;-56
2022/08/31 10:11:53;;;;;;;1.25;0.85;;;;;;;22.20;100.00;98869.09;5172422;27;20171;-56
2022/08/31 10:14:28;;;;;;;3.92;0.90;;;;;;;22.68;100.00;98881.75;5172424;27;20557;-52
2022/08/31 10:17:01;;;;;;;6.43;0.68;;;;;;;22.76;99.86;98893.47;5172272;27;20047;-56
2022/08/31 10:19:38;;;;;;;1.65;1.00;;;;;;;22.20;100.00;98894.22;5172868;27;20072;-54
2022/08/31 10:22:10;;;;;;;3.08;0.90;;;;;;;22.00;100.00;98872.91;5172017;27;20046;-53
2022/08/31 10:24:45;;;;;;;3.05;0.80;;;;;;;21.04;100.00;98856.34;5172103;27;20058;-56
2022/08/31 10:27:15;;;;;;;4.97;1.20;;;;;;;20.83;100.00;98847.41;5172496;27;20065;-53
2022/08/31 10:29:48;;;;;;;0.65;0.63;;;;;;;19.64;100.00;98815.53;5172129;27;20090;-51
2022/08/31 10:32:24;;;;;;;3.60;1.30;;;;;;;19.16;100.00;98792.03;5172186;27;20048;-56
2022/08/31 10:35:04;;;;;;;6.05;0.63;;;;;;;18.45;100.00;98799.84;5172294;27;20522;-51
2022/08/31 10:37:48;;;;;;;3.40;0.95;;;;;;;18.39;100.00;98784.88;5171839;27;20050;-51
2022/08/31 10:40:17;;;;;;;1.35;0.93;;;;;;;18.99;100.00;98773.75;5172016;27;20129;-52
2022/08/31 10:42:58;;;;;;;0.70;0.70;;;;;;;19.85;100.00;98814.22;5172116;27;20351;-52
2022/08/31 10:45:28;;;;;;;1.77;0.60;;;;;;;19.92;100.00;98810.47;5173579;27;20539;-55
2022/08/31 10:47:57;;;;;;;13.50;1.13;;;;;;;19.82;100.00;98808.75;5175642;27;20046;-55
2022/08/31 10:50:30;;;;;;;2.45;0.82;;;;;;;19.08;100.00;98804.50;5175492;27;20099;-53
2022/08/31 10:53:06;;;;;;;0.70;0.70;;;;;;;19.71;100.00;98801.44;5175554;27;20133;-55
2022/08/31 10:55:39;;;;;;;6.00;0.77;;;;;;;20.20;100.00;98822.88;5175484;27;20050;-54
2022/08/31 10:58:14;;;;;;;5.50;0.80;;;;;;;21.07;100.00;98841.53;5175480;27;20134;-54
2022/08/31 11:00:50;;;;;;;2.17;0.70;;;;;;;20.55;100.00;98862.13;5175576;27;20454;-54
2022/08/31 11:03:29;;;;;;;2.33;0.80;;;;;;;20.98;100.00;98869.28;5175589;27;20050;-54
2022/08/31 11:05:59;;;;;;;3.33;0.80;;;;;;;20.50;100.00;98863.41;5175406;27;20091;-54
2022/08/31 11:08:47;;;;;;;1.63;0.82;;;;;;;19.59;100.00;98832.69;5175405;27;20165;-53
2022/08/31 11:11:19;;;;;;;2.47;0.60;;;;;;;19.98;100.00;98817.84;5175462;27;20153;-53
2022/08/31 11:14:04;;;;;;;0.55;0.55;;;;;;;19.79;100.00;98807.59;5175230;27;20050;-53
2022/08/31 11:17:01;;;;;;;7.55;0.70;;;;;;;19.71;100.00;98809.78;5175224;27;20086;-51
2022/08/31 11:19:54;;;;;;;8.77;0.90;;;;;;;20.14;100.00;98780.88;5174961;27;20516;-52
2022/08/31 11:23:00;;;;;;;3.63;0.80;;;;;;;20.48;100.00;98795.47;5175132;27;20060;-55
2022/08/31 11:25:59;;;;;;;2.13;1.00;;;;;;;19.98;100.00;98815.06;5175347;27;20110;-54
2022/08/31 11:28:32;;;;;;;1.50;0.77;;;;;;;20.18;100.00;98808.59;5175027;27;20099;-52
2022/08/31 11:31:00;;;;;;;2.92;1.00;;;;;;;20.09;100.00;98802.88;5175197;27;20053;-52
2022/08/31 11:33:30;;;;;;;1.98;0.65;;;;;;;20.41;100.00;98808.34;5174694;27;20059;-53
2022/08/31 11:35:59;;;;;;;4.47;1.00;;;;;;;20.66;100.00;98804.91;5174691;27;20074;-54
2022/08/31 11:38:46;;;;;;;0.60;0.60;;;;;;;21.02;100.00;98830.94;5174794;27;20083;-54
2022/08/31 11:41:37;;;;;;;1.98;0.60;;;;;;;21.02;100.00;98837.28;5174763;27;20046;-53
2022/08/31 11:44:06;;;;;;;2.75;0.70;;;;;;;21.03;100.00;98843.66;5174660;27;20125;-55
2022/08/31 11:47:01;;;;;;;0.60;0.60;;;;;;;20.14;100.00;98842.09;5174735;27;20061;-52